createdAt,value
2018-04-09T00:00:05.329Z,99.77
2018-04-09T00:01:27.390Z,99.87
2018-04-09T00:02:49.517Z,99.99
2018-04-09T00:04:11.317Z,99.99
2018-04-09T00:05:33.406Z,99.99
2018-04-09T00:06:54.950Z,99.99
2018-04-09T00:08:16.761Z,99.99
2018-04-09T00:09:38.843Z,99.99
2018-04-09T00:11:00.633Z,99.99
2018-04-09T00:12:22.699Z,99.99
2018-04-09T00:13:44.500Z,99.99
2018-04-09T00:15:05.779Z,99.99
2018-04-09T00:16:27.311Z,99.99
2018-04-09T00:17:49.358Z,99.99
2018-04-09T00:19:11.162Z,99.99
2018-04-09T00:20:32.956Z,99.99
2018-04-09T00:21:54.760Z,99.99
2018-04-09T00:23:16.572Z,99.99
2018-04-09T00:24:38.636Z,99.99
2018-04-09T00:26:00.470Z,99.99
2018-04-09T00:27:22.540Z,99.99
2018-04-09T00:28:44.595Z,99.99
2018-04-09T00:30:06.393Z,99.99
2018-04-09T00:31:28.467Z,99.99
2018-04-09T00:32:50.254Z,99.99
2018-04-09T00:34:11.781Z,99.99
2018-04-09T00:35:33.581Z,99.99
2018-04-09T00:36:55.670Z,99.99
2018-04-09T00:38:17.720Z,99.99
2018-04-09T00:39:39.786Z,99.99
2018-04-09T00:41:01.841Z,99.99
2018-04-09T00:42:23.648Z,99.99
2018-04-09T00:43:45.442Z,99.99
2018-04-09T00:45:07.513Z,99.99
2018-04-09T00:46:29.056Z,99.99
2018-04-09T00:47:50.854Z,99.99
2018-04-09T00:49:12.897Z,99.99
2018-04-09T00:50:34.422Z,99.99
2018-04-09T00:51:56.209Z,99.99
2018-04-09T00:53:18.025Z,99.99
2018-04-09T00:54:39.294Z,99.99
2018-04-09T00:56:00.821Z,99.99
2018-04-09T00:57:22.612Z,99.99
2018-04-09T00:58:44.670Z,99.99
2018-04-09T01:00:06.207Z,99.99
2018-04-09T01:01:28.014Z,99.99
2018-04-09T01:02:49.550Z,99.99
2018-04-09T01:04:11.616Z,99.99
2018-04-09T01:05:33.675Z,99.99
2018-04-09T01:06:55.750Z,99.99
2018-04-09T01:08:17.818Z,99.99
2018-04-09T01:09:39.882Z,99.99
2018-04-09T01:11:01.683Z,99.99
2018-04-09T01:12:23.478Z,99.99
2018-04-09T01:13:44.758Z,99.99
2018-04-09T01:15:06.562Z,99.99
2018-04-09T01:16:28.100Z,99.99
2018-04-09T01:17:49.893Z,99.99
2018-04-09T01:19:11.715Z,99.99
2018-04-09T01:20:33.243Z,99.99
2018-04-09T01:21:55.033Z,99.99
2018-04-09T01:23:16.824Z,99.99
2018-04-09T01:24:38.102Z,99.99
2018-04-09T01:25:59.881Z,99.99
2018-04-09T01:27:21.688Z,99.99
2018-04-09T01:28:43.476Z,99.99
2018-04-09T01:30:05.036Z,99.99
2018-04-09T01:31:27.112Z,99.99
2018-04-09T01:32:49.194Z,99.99
2018-04-09T01:34:10.990Z,99.99
2018-04-09T01:35:33.058Z,99.99
2018-04-09T01:36:55.114Z,99.99
2018-04-09T01:38:16.650Z,99.99
2018-04-09T01:39:38.698Z,99.99
2018-04-09T01:40:59.976Z,99.99
2018-04-09T01:42:21.765Z,99.99
2018-04-09T01:43:43.809Z,99.99
2018-04-09T01:45:05.630Z,99.99
2018-04-09T01:46:27.694Z,99.99
2018-04-09T01:47:49.736Z,99.99
2018-04-09T01:49:11.782Z,99.99
2018-04-09T01:50:33.832Z,99.99
2018-04-09T01:51:55.636Z,99.99
2018-04-09T01:53:17.682Z,99.99
2018-04-09T01:54:39.479Z,99.99
2018-04-09T01:56:01.284Z,99.99
2018-04-09T01:57:23.082Z,99.99
2018-04-09T01:58:44.366Z,99.99
2018-04-09T02:00:06.157Z,99.99
2018-04-09T02:01:27.956Z,99.99
2018-04-09T02:02:49.762Z,99.99
2018-04-09T02:04:11.305Z,99.99
2018-04-09T02:05:33.375Z,99.99
2018-04-09T02:06:54.898Z,99.99
2018-04-09T02:08:16.694Z,99.99
2018-04-09T02:09:38.753Z,99.99
2018-04-09T02:11:00.811Z,99.99
2018-04-09T02:12:22.101Z,99.99
2018-04-09T02:13:43.899Z,99.99
2018-04-09T02:15:05.948Z,99.99
2018-04-09T02:16:27.749Z,99.99
2018-04-09T02:17:49.795Z,99.99
2018-04-09T02:19:11.850Z,99.99
2018-04-09T02:20:33.641Z,99.99
2018-04-09T02:21:55.711Z,99.99
2018-04-09T02:23:16.981Z,99.99
2018-04-09T02:24:38.788Z,99.99
2018-04-09T02:26:00.322Z,99.99
2018-04-09T02:27:22.381Z,99.99
2018-04-09T02:28:44.133Z,99.99
2018-04-09T02:30:05.949Z,99.99
2018-04-09T02:31:27.470Z,99.99
2018-04-09T02:32:49.285Z,99.99
2018-04-09T02:34:10.835Z,99.99
2018-04-09T02:35:32.892Z,99.99
2018-04-09T02:36:54.707Z,99.99
2018-04-09T02:38:16.802Z,99.99
2018-04-09T02:39:38.881Z,99.99
2018-04-09T02:41:00.682Z,99.99
2018-04-09T02:42:22.755Z,99.99
2018-04-09T02:43:44.556Z,99.99
2018-04-09T02:45:06.628Z,99.99
2018-04-09T02:46:28.418Z,99.99
2018-04-09T02:47:50.226Z,99.99
2018-04-09T02:49:12.294Z,99.99
2018-04-09T02:50:33.831Z,99.99
2018-04-09T02:51:55.652Z,99.99
2018-04-09T02:53:17.459Z,99.99
2018-04-09T02:54:39.535Z,99.99
2018-04-09T02:56:01.270Z,99.99
2018-04-09T02:57:22.546Z,99.99
2018-04-09T02:58:44.087Z,99.99
2018-04-09T03:00:06.150Z,99.99
2018-04-09T03:01:28.215Z,99.99
2018-04-09T03:02:49.493Z,99.99
2018-04-09T03:04:11.289Z,99.99
2018-04-09T03:05:32.576Z,99.99
2018-04-09T03:06:53.849Z,99.99
2018-04-09T03:08:15.676Z,99.99
2018-04-09T03:09:37.743Z,99.99
2018-04-09T03:10:59.035Z,99.99
2018-04-09T03:12:20.826Z,99.99
2018-04-09T03:13:42.642Z,99.99
2018-04-09T03:15:04.692Z,99.99
2018-04-09T03:16:26.508Z,99.99
2018-04-09T03:17:48.579Z,99.99
2018-04-09T03:19:10.376Z,99.99
2018-04-09T03:20:31.906Z,99.99
2018-04-09T03:21:53.441Z,99.99
2018-04-09T03:23:14.699Z,99.99
2018-04-09T03:24:36.506Z,99.99
2018-04-09T03:25:58.552Z,99.99
2018-04-09T03:27:19.820Z,99.99
2018-04-09T03:28:41.891Z,99.99
2018-04-09T03:30:03.684Z,99.99
2018-04-09T03:31:24.963Z,99.99
2018-04-09T03:32:46.757Z,99.99
2018-04-09T03:34:08.824Z,99.99
2018-04-09T03:35:30.633Z,99.99
2018-04-09T03:36:52.180Z,99.99
2018-04-09T03:38:13.457Z,99.99
2018-04-09T03:39:35.258Z,99.99
2018-04-09T03:40:56.803Z,99.99
2018-04-09T03:42:18.201Z,0
2018-04-09T03:43:51.405Z,0
2018-04-09T03:45:13.202Z,99.99
2018-04-09T03:46:34.986Z,99.99
2018-04-09T03:47:57.054Z,99.99
2018-04-09T03:49:18.321Z,99.99
2018-04-09T03:50:39.862Z,99.99
2018-04-09T03:52:01.659Z,99.99
2018-04-09T03:53:23.448Z,99.99
2018-04-09T03:54:45.500Z,99.99
2018-04-09T03:56:07.299Z,99.99
2018-04-09T03:57:29.359Z,99.99
2018-04-09T03:58:51.158Z,99.99
2018-04-09T04:00:12.948Z,99.99
2018-04-09T04:01:34.762Z,99.99
2018-04-09T04:02:56.550Z,99.99
2018-04-09T04:04:18.337Z,99.99
2018-04-09T04:05:40.163Z,99.99
2018-04-09T04:07:02.048Z,99.99
2018-04-09T04:08:24.152Z,99.99
2018-04-09T04:09:45.687Z,99.99
2018-04-09T04:11:07.502Z,99.99
2018-04-09T04:12:29.556Z,99.99
2018-04-09T04:13:51.638Z,99.99
2018-04-09T04:15:13.434Z,99.99
2018-04-09T04:16:35.232Z,99.99
2018-04-09T04:17:56.770Z,99.99
2018-04-09T04:19:18.639Z,99.99
2018-04-09T04:20:40.183Z,99.99
2018-04-09T04:22:01.983Z,99.99
2018-04-09T04:23:23.823Z,99.99
2018-04-09T04:24:45.704Z,99.99
2018-04-09T04:26:07.498Z,99.99
2018-04-09T04:27:29.041Z,99.99
2018-04-09T04:29:22.457Z,99.99
2018-04-09T04:30:44.253Z,99.99
2018-04-09T04:32:05.800Z,99.99
2018-04-09T04:33:27.338Z,99.99
2018-04-09T04:34:49.187Z,99.99
2018-04-09T04:36:10.982Z,99.99
2018-04-09T04:37:32.512Z,99.99
2018-04-09T04:38:54.052Z,99.99
2018-04-09T04:40:15.851Z,99.99
2018-04-09T04:41:37.663Z,99.99
2018-04-09T04:42:59.733Z,99.99
2018-04-09T04:44:21.291Z,99.99
2018-04-09T04:45:43.087Z,99.99
2018-04-09T04:47:04.899Z,99.99
2018-04-09T04:48:26.694Z,99.99
2018-04-09T04:49:48.491Z,99.99
2018-04-09T04:51:10.554Z,99.99
2018-04-09T04:52:32.365Z,99.99
2018-04-09T04:53:54.153Z,99.99
2018-04-09T04:55:15.705Z,99.99
2018-04-09T04:56:37.508Z,99.99
2018-04-09T04:57:59.300Z,99.99
2018-04-09T04:59:21.378Z,99.99
2018-04-09T05:00:42.646Z,99.99
2018-04-09T05:02:04.486Z,99.99
2018-04-09T05:03:26.298Z,99.99
2018-04-09T05:04:48.382Z,99.99
2018-04-09T05:06:10.175Z,99.99
2018-04-09T05:07:31.969Z,99.99
2018-04-09T05:08:54.029Z,99.99
2018-04-09T05:10:15.314Z,99.99
2018-04-09T05:11:36.850Z,99.99
2018-04-09T05:12:58.126Z,99.99
2018-04-09T05:14:20.214Z,99.99
2018-04-09T05:15:42.000Z,99.99
2018-04-09T05:17:04.061Z,99.99
2018-04-09T05:18:26.140Z,99.99
2018-04-09T05:19:47.945Z,99.99
2018-04-09T05:21:09.746Z,99.99
2018-04-09T05:22:31.807Z,99.99
2018-04-09T05:23:53.888Z,99.99
2018-04-09T05:25:15.844Z,99.99
2018-04-09T05:26:37.659Z,99.99
2018-04-09T05:27:59.454Z,99.99
2018-04-09T05:29:21.294Z,99.99
2018-04-09T05:30:43.127Z,99.99
2018-04-09T05:32:05.222Z,99.99
2018-04-09T05:33:27.053Z,99.99
2018-04-09T05:34:49.125Z,99.99
2018-04-09T05:36:10.673Z,99.99
2018-04-09T05:37:32.228Z,99.99
2018-04-09T05:38:54.151Z,99.99
2018-04-09T05:40:15.971Z,99.99
2018-04-09T05:41:37.780Z,99.99
2018-04-09T05:42:59.328Z,99.99
2018-04-09T05:44:21.142Z,99.99
2018-04-09T05:45:42.965Z,99.99
2018-04-09T05:47:04.755Z,99.99
2018-04-09T05:48:26.293Z,99.99
2018-04-09T05:49:47.817Z,99.99
2018-04-09T05:51:09.363Z,99.99
2018-04-09T05:52:31.191Z,99.99
2018-04-09T05:53:52.723Z,99.99
2018-04-09T05:55:14.516Z,99.99
2018-04-09T05:56:36.070Z,99.99
2018-04-09T05:57:58.128Z,99.99
2018-04-09T05:59:20.186Z,99.99
2018-04-09T06:00:42.340Z,99.99
2018-04-09T06:02:03.610Z,99.99
2018-04-09T06:03:25.420Z,99.99
2018-04-09T06:04:46.971Z,99.99
2018-04-09T06:06:08.535Z,99.99
2018-04-09T06:07:30.376Z,98.77
2018-04-09T06:08:52.182Z,97.14
2018-04-09T06:10:13.997Z,95.36
2018-04-09T06:11:35.811Z,93.77
2018-04-09T06:12:57.622Z,92.91
2018-04-09T06:14:19.826Z,92.18
2018-04-09T06:15:41.966Z,91.03
2018-04-09T06:17:03.780Z,90.35
2018-04-09T06:18:25.588Z,89.72
2018-04-09T06:19:47.394Z,88.71
2018-04-09T06:21:08.934Z,88.32
2018-04-09T06:22:31.047Z,87.3
2018-04-09T06:23:53.128Z,86.44
2018-04-09T06:25:15.196Z,85.77
2018-04-09T06:26:37.343Z,85.52
2018-04-09T06:27:58.954Z,84.84
2018-04-09T06:29:20.753Z,83.63
2018-04-09T06:30:42.040Z,82.57
2018-04-09T06:32:03.864Z,82.76
2018-04-09T06:33:25.935Z,83.15
2018-04-09T06:34:47.503Z,83.34
2018-04-09T06:36:09.602Z,83.34
2018-04-09T06:37:31.444Z,83
2018-04-09T06:38:52.737Z,82.32
2018-04-09T06:40:14.550Z,81.55
2018-04-09T06:41:36.100Z,79.62
2018-04-09T06:42:58.179Z,80.22
2018-04-09T06:44:19.972Z,80.85
2018-04-09T06:45:41.787Z,80.66
2018-04-09T06:47:03.654Z,79.54
2018-04-09T06:48:25.214Z,78.46
2018-04-09T06:49:46.779Z,77.5
2018-04-09T06:51:08.062Z,80.35
2018-04-09T06:52:29.915Z,82.45
2018-04-09T06:53:52.008Z,81.77
2018-04-09T06:55:13.844Z,81.37
2018-04-09T06:56:35.665Z,81.68
2018-04-09T06:57:57.842Z,80.08
2018-04-09T06:59:19.917Z,77.84
2018-04-09T07:00:41.746Z,79.54
2018-04-09T07:02:03.560Z,80.08
2018-04-09T07:03:25.639Z,81.37
2018-04-09T07:04:47.468Z,81.77
2018-04-09T07:06:08.741Z,81.14
2018-04-09T07:07:30.558Z,81.01
2018-04-09T07:08:52.388Z,79.98
2018-04-09T07:10:14.502Z,79.06
2018-04-09T07:11:36.327Z,79.74
2018-04-09T07:12:57.628Z,79.97
2018-04-09T07:14:19.439Z,78.48
2018-04-09T07:15:41.296Z,77.3
2018-04-09T07:17:03.472Z,76.3
2018-04-09T07:18:25.044Z,73.28
2018-04-09T07:19:47.140Z,72
2018-04-09T07:21:08.729Z,71.26
2018-04-09T07:22:30.564Z,73.3
2018-04-09T07:23:52.372Z,72.16
2018-04-09T07:25:14.477Z,70.2
2018-04-09T07:26:36.600Z,69.85
2018-04-09T07:27:58.696Z,69.08
2018-04-09T07:29:20.524Z,69.08
2018-04-09T07:30:42.598Z,68.69
2018-04-09T07:32:04.180Z,69.33
2018-04-09T07:33:25.755Z,69.17
2018-04-09T07:34:47.825Z,68.91
2018-04-09T07:36:09.905Z,68.05
2018-04-09T07:37:32.069Z,68.53
2018-04-09T07:38:54.164Z,68.69
2018-04-09T07:40:15.994Z,71.84
2018-04-09T07:41:38.072Z,71.78
2018-04-09T07:43:00.168Z,71.14
2018-04-09T07:44:22.304Z,71.46
2018-04-09T07:45:44.212Z,75.2
2018-04-09T07:47:05.765Z,75.72
2018-04-09T07:48:27.858Z,75.89
2018-04-09T07:49:49.699Z,76.63
2018-04-09T07:51:11.781Z,77.5
2018-04-09T07:52:33.882Z,80.31
2018-04-09T07:53:55.698Z,82.29
2018-04-09T07:55:17.254Z,85.06
2018-04-09T07:56:39.355Z,87.81
2018-04-09T07:58:01.181Z,89.88
2018-04-09T07:59:22.992Z,90.89
2018-04-09T08:00:45.083Z,91.18
2018-04-09T08:02:06.898Z,92.96
2018-04-09T08:03:28.711Z,93.73
2018-04-09T08:04:50.794Z,94.35
2018-04-09T08:06:12.922Z,97.14
2018-04-09T08:07:35.051Z,97.86
2018-04-09T08:08:57.125Z,96.99
2018-04-09T08:10:19.208Z,96.85
2018-04-09T08:11:41.040Z,96.22
2018-04-09T08:13:03.130Z,95.89
2018-04-09T08:14:25.283Z,96.08
2018-04-09T08:15:47.088Z,96.94
2018-04-09T08:17:09.193Z,97.14
2018-04-09T08:18:31.277Z,96.47
2018-04-09T08:19:53.368Z,96.61
2018-04-09T08:21:15.460Z,96.37
2018-04-09T08:22:37.271Z,96.8
2018-04-09T08:23:59.357Z,96.94
2018-04-09T08:25:21.189Z,97.52
2018-04-09T08:26:43.271Z,97.76
2018-04-09T08:28:05.096Z,97.76
2018-04-09T08:29:27.179Z,97.28
2018-04-09T08:30:49.251Z,99.01
2018-04-09T08:32:11.090Z,98.43
2018-04-09T08:33:32.903Z,98.72
2018-04-09T08:34:54.986Z,97.86
2018-04-09T08:36:17.094Z,99.01
2018-04-09T08:37:38.941Z,98.62
2018-04-09T08:39:00.762Z,98.91
2018-04-09T08:40:22.847Z,98.29
2018-04-09T08:41:44.942Z,96.66
2018-04-09T08:43:07.045Z,96.75
2018-04-09T08:44:29.134Z,97.04
2018-04-09T08:45:50.968Z,96.13
2018-04-09T08:47:13.062Z,94.16
2018-04-09T08:48:35.164Z,94.49
2018-04-09T08:49:57.245Z,95.17
2018-04-09T08:51:19.343Z,95.45
2018-04-09T08:52:41.442Z,95.79
2018-04-09T08:54:03.574Z,95.21
2018-04-09T08:55:25.415Z,96.8
2018-04-09T08:56:47.385Z,96.42
2018-04-09T08:58:09.194Z,96.89
2018-04-09T08:59:31.286Z,96.51
2018-04-09T09:00:53.370Z,96.89
2018-04-09T09:02:15.452Z,96.32
2018-04-09T09:03:37.284Z,96.61
2018-04-09T09:04:59.399Z,96.42
2018-04-09T09:06:21.483Z,95.75
2018-04-09T09:07:43.312Z,96.99
2018-04-09T09:09:05.394Z,97.71
2018-04-09T09:10:26.964Z,97.91
2018-04-09T09:11:49.045Z,98.86
2018-04-09T09:13:10.879Z,97.81
2018-04-09T09:14:32.951Z,97.96
2018-04-09T09:15:55.034Z,96.99
2018-04-09T09:17:17.091Z,97.66
2018-04-09T09:18:38.915Z,97.47
2018-04-09T09:20:00.751Z,97.76
2018-04-09T09:21:22.906Z,97.19
2018-04-09T09:22:44.990Z,97.47
2018-04-09T09:24:06.531Z,97.66
2018-04-09T09:25:28.334Z,96.8
2018-04-09T09:26:50.398Z,96.61
2018-04-09T09:28:12.512Z,96.13
2018-04-09T09:29:34.663Z,96.8
2018-04-09T09:30:56.467Z,97.04
2018-04-09T09:32:18.022Z,96.66
2018-04-09T09:33:39.574Z,95.79
2018-04-09T09:35:01.387Z,95.6
2018-04-09T09:36:23.469Z,95.6
2018-04-09T09:37:45.022Z,95.4
2018-04-09T09:39:07.114Z,94.45
2018-04-09T09:40:28.928Z,93.58
2018-04-09T09:41:50.764Z,93.19
2018-04-09T09:43:12.865Z,93.39
2018-04-09T09:44:35.018Z,93.39
2018-04-09T09:45:57.097Z,93.39
2018-04-09T09:47:18.916Z,93.87
2018-04-09T09:48:40.985Z,93.19
2018-04-09T09:50:02.529Z,93.1
2018-04-09T09:51:24.085Z,92.96
2018-04-09T09:52:45.908Z,92.19
2018-04-09T09:54:07.989Z,92.19
2018-04-09T09:55:30.081Z,92.57
2018-04-09T09:56:51.894Z,92.76
2018-04-09T09:58:13.969Z,91.9
2018-04-09T09:59:35.781Z,90.31
2018-04-09T10:00:57.622Z,91.08
2018-04-09T10:02:19.440Z,90.55
2018-04-09T10:03:41.519Z,90.98
2018-04-09T10:05:03.587Z,90.26
2018-04-09T10:06:25.145Z,90.35
2018-04-09T10:07:47.156Z,90.64
2018-04-09T10:09:09.339Z,89.1
2018-04-09T10:10:31.401Z,90.06
2018-04-09T10:11:53.475Z,90.31
2018-04-09T10:13:15.286Z,89.78
2018-04-09T10:14:37.369Z,89.49
2018-04-09T10:15:59.465Z,89.29
2018-04-09T10:17:21.540Z,89.49
2018-04-09T10:18:43.118Z,89.97
2018-04-09T10:20:04.962Z,89.2
2018-04-09T10:21:26.547Z,89.58
2018-04-09T10:22:48.129Z,88.53
2018-04-09T10:24:09.667Z,89.01
2018-04-09T10:25:30.689Z,89.39
2018-04-09T10:26:52.591Z,88.85
2018-04-09T10:28:14.178Z,89.68
2018-04-09T10:29:35.989Z,90.59
2018-04-09T10:30:57.548Z,90.16
2018-04-09T10:32:19.635Z,90.06
2018-04-09T10:33:41.462Z,90.73
2018-04-09T10:35:03.567Z,90.45
2018-04-09T10:36:25.676Z,90.41
2018-04-09T10:37:47.502Z,91.27
2018-04-09T10:39:09.315Z,90.35
2018-04-09T10:40:31.203Z,89.2
2018-04-09T10:41:53.013Z,88.47
2018-04-09T10:43:15.084Z,87.26
2018-04-09T10:44:37.235Z,86.21
2018-04-09T10:45:59.058Z,86.05
2018-04-09T10:47:21.132Z,85.57
2018-04-09T10:48:42.952Z,85.05
2018-04-09T10:50:04.762Z,85.72
2018-04-09T10:51:26.917Z,84.38
2018-04-09T10:52:48.993Z,83.61
2018-04-09T10:54:11.089Z,82.45
2018-04-09T10:55:32.931Z,82.2
2018-04-09T10:56:55.117Z,82.01
2018-04-09T10:58:16.930Z,81.24
2018-04-09T10:59:38.765Z,81.04
2018-04-09T11:01:00.576Z,81.14
2018-04-09T11:02:22.696Z,81.33
2018-04-09T11:03:44.024Z,81.91
2018-04-09T11:05:06.304Z,82.26
2018-04-09T11:06:28.397Z,82.16
2018-04-09T11:07:50.248Z,82.35
2018-04-09T11:09:12.325Z,82.2
2018-04-09T11:10:34.150Z,81.91
2018-04-09T11:11:55.918Z,82.2
2018-04-09T11:13:18.027Z,82.2
2018-04-09T11:14:40.106Z,81.57
2018-04-09T11:16:01.945Z,80.51
2018-04-09T11:17:23.487Z,79.58
2018-04-09T11:18:45.091Z,79.49
2018-04-09T11:20:06.642Z,80.41
2018-04-09T11:21:28.214Z,81.33
2018-04-09T11:22:50.049Z,80.89
2018-04-09T11:24:12.142Z,80.89
2018-04-09T11:25:34.231Z,80.79
2018-04-09T11:26:55.259Z,79.93
2018-04-09T11:28:17.109Z,80.51
2018-04-09T11:29:38.669Z,80.89
2018-04-09T11:31:00.777Z,80.51
2018-04-09T11:32:22.336Z,81.02
2018-04-09T11:33:44.148Z,81.02
2018-04-09T11:35:05.740Z,81.51
2018-04-09T11:36:33.574Z,81.27
2018-04-09T11:37:55.128Z,82.05
2018-04-09T11:39:17.209Z,82.78
2018-04-09T11:40:39.277Z,82.59
2018-04-09T11:42:01.356Z,82.97
2018-04-09T11:43:23.426Z,82.97
2018-04-09T11:44:45.239Z,83.45
2018-04-09T11:46:07.318Z,82.97
2018-04-09T11:47:28.895Z,81.91
2018-04-09T11:48:50.227Z,81.72
2018-04-09T11:50:11.993Z,82.24
2018-04-09T11:51:33.279Z,82.72
2018-04-09T11:52:55.365Z,83.2
2018-04-09T11:54:17.166Z,82.72
2018-04-09T11:55:38.726Z,80.12
2018-04-09T11:57:00.539Z,79.83
2018-04-09T11:58:22.088Z,78.77
2018-04-09T11:59:43.380Z,79.16
2018-04-09T12:01:04.928Z,79.35
2018-04-09T12:02:26.487Z,79.25
2018-04-09T12:03:48.037Z,79.1
2018-04-09T12:05:10.119Z,78.42
2018-04-09T12:06:31.945Z,79.1
2018-04-09T12:07:53.739Z,79.1
2018-04-09T12:09:15.338Z,79.29
2018-04-09T12:10:37.157Z,79.97
2018-04-09T12:11:58.998Z,79.77
2018-04-09T12:13:21.072Z,79.49
2018-04-09T12:14:42.366Z,79.39
2018-04-09T12:16:03.899Z,80.45
2018-04-09T12:17:26.003Z,80.06
2018-04-09T12:18:48.111Z,80.74
2018-04-09T12:20:09.918Z,79.77
2018-04-09T12:21:31.997Z,79.39
2018-04-09T12:22:54.097Z,80.02
2018-04-09T12:24:16.176Z,78.91
2018-04-09T12:25:38.306Z,78.52
2018-04-09T12:27:00.387Z,79.1
2018-04-09T12:28:22.463Z,79.49
2018-04-09T12:29:44.281Z,80.16
2018-04-09T12:31:06.369Z,80.64
2018-04-09T12:32:28.205Z,81.22
2018-04-09T12:33:49.763Z,80.93
2018-04-09T12:35:11.637Z,81.09
2018-04-09T12:36:33.712Z,78.81
2018-04-09T12:37:55.801Z,77.65
2018-04-09T12:39:17.619Z,76.98
2018-04-09T12:40:39.456Z,76.1
2018-04-09T12:42:01.080Z,74.41
2018-04-09T12:43:22.639Z,74.99
2018-04-09T12:44:44.449Z,77.21
2018-04-09T12:46:06.522Z,78.81
2018-04-09T12:47:28.687Z,78.03
2018-04-09T12:48:50.505Z,77.59
2018-04-09T12:50:12.323Z,80.1
2018-04-09T12:51:34.155Z,79.87
2018-04-09T12:52:56.335Z,80.89
2018-04-09T12:54:18.449Z,80.41
2018-04-09T12:55:39.999Z,80.41
2018-04-09T12:57:02.107Z,81.09
2018-04-09T12:58:24.180Z,81.37
2018-04-09T12:59:46.003Z,81.66
2018-04-09T13:02:29.043Z,81.12
2018-04-09T13:03:51.131Z,80.83
2018-04-09T13:05:13.253Z,81.12
2018-04-09T13:06:35.374Z,81.41
2018-04-09T13:07:56.933Z,81.26
2018-04-09T13:09:19.050Z,81.26
2018-04-09T13:10:41.142Z,80.62
2018-04-09T13:12:03.245Z,80.87
2018-04-09T13:13:25.343Z,81.45
2018-04-09T13:14:47.185Z,81.84
2018-04-09T13:16:09.017Z,81.45
2018-04-09T13:17:30.853Z,80.97
2018-04-09T13:18:52.936Z,80.24
2018-04-09T13:20:15.075Z,80.33
2018-04-09T13:21:36.655Z,80.82
2018-04-09T13:22:58.561Z,80.05
2018-04-09T13:24:20.650Z,79.6
2018-04-09T13:25:42.734Z,79.12
2018-04-09T13:27:04.799Z,79.02
2018-04-09T13:28:26.593Z,79.6
2018-04-09T13:29:48.690Z,80.57
2018-04-09T13:31:10.815Z,80.28
2018-04-09T13:32:32.919Z,79.22
2018-04-09T13:33:55.021Z,78.54
2018-04-09T13:35:16.866Z,78.67
2018-04-09T13:36:39.053Z,79.41
2018-04-09T13:38:01.192Z,79.31
2018-04-09T13:39:23.305Z,79.31
2018-04-09T13:40:45.137Z,78.25
2018-04-09T13:42:07.231Z,77.96
2018-04-09T13:43:29.111Z,77.32
2018-04-09T13:44:51.196Z,77.32
2018-04-09T13:46:13.032Z,76.93
2018-04-09T13:47:35.114Z,76.93
2018-04-09T13:48:57.021Z,77.8
2018-04-09T13:50:19.101Z,78
2018-04-09T13:51:40.931Z,78.87
2018-04-09T13:53:02.761Z,78.73
2018-04-09T13:54:24.899Z,77.96
2018-04-09T13:55:46.998Z,77.86
2018-04-09T13:57:09.094Z,78.59
2018-04-09T13:58:31.186Z,78.11
2018-04-09T13:59:53.272Z,77.09
2018-04-09T14:01:15.132Z,77.86
2018-04-09T14:02:37.241Z,77.83
2018-04-09T14:03:59.072Z,78.5
2018-04-09T14:05:20.638Z,78.31
2018-04-09T14:06:42.748Z,77.86
2018-04-09T14:08:04.847Z,77.96
2018-04-09T14:09:26.684Z,78.15
2018-04-09T14:10:48.514Z,77.76
2018-04-09T14:12:10.585Z,78.25
2018-04-09T14:13:32.677Z,78.64
2018-04-09T14:14:54.517Z,78.79
2018-04-09T14:16:16.643Z,79.41
2018-04-09T14:17:38.765Z,79.56
2018-04-09T14:19:00.880Z,79.75
2018-04-09T14:20:22.701Z,80.82
2018-04-09T14:21:44.813Z,80.91
2018-04-09T14:23:06.905Z,80.33
2018-04-09T14:24:28.456Z,80.82
2018-04-09T14:25:50.308Z,80.62
2018-04-09T14:27:11.904Z,80.82
2018-04-09T14:28:33.989Z,81.49
2018-04-09T14:29:56.106Z,82.26
2018-04-09T14:31:18.188Z,81.49
2018-04-09T14:32:40.306Z,81.4
2018-04-09T14:34:02.148Z,81.11
2018-04-09T14:35:24.332Z,81.68
2018-04-09T14:36:46.422Z,82.07
2018-04-09T14:38:07.724Z,82.61
2018-04-09T14:39:29.568Z,82.94
2018-04-09T14:40:51.378Z,82.65
2018-04-09T14:42:13.214Z,83.52
2018-04-09T14:43:35.062Z,83.91
2018-04-09T14:44:56.891Z,83.62
2018-04-09T14:46:18.996Z,83.72
2018-04-09T14:47:41.086Z,83.91
2018-04-09T14:49:03.218Z,83.66
2018-04-09T14:50:25.058Z,83.37
2018-04-09T14:51:47.177Z,83.51
2018-04-09T14:53:09.330Z,83.03
2018-04-09T14:54:31.444Z,82.98
2018-04-09T14:55:53.270Z,83.75
2018-04-09T14:57:14.824Z,84.78
2018-04-09T14:58:36.646Z,85.26
2018-04-09T14:59:58.489Z,85.74
2018-04-09T15:01:20.300Z,86.47
2018-04-09T15:02:42.392Z,87.24
2018-04-09T15:04:04.235Z,87.05
2018-04-09T15:05:26.078Z,87.53
2018-04-09T15:06:48.198Z,88.36
2018-04-09T15:08:10.028Z,89.51
2018-04-09T15:09:32.141Z,89.47
2018-04-09T15:10:54.238Z,89.57
2018-04-09T15:12:16.088Z,89.76
2018-04-09T15:13:37.922Z,90.24
2018-04-09T15:15:00.056Z,90.44
2018-04-09T15:16:22.147Z,90.44
2018-04-09T15:17:44.281Z,90.92
2018-04-09T15:19:05.826Z,90.05
2018-04-09T15:20:27.733Z,90.24
2018-04-09T15:21:49.679Z,90.63
2018-04-09T15:23:11.785Z,91.02
2018-04-09T15:24:33.362Z,91.3
2018-04-09T15:25:55.543Z,90.92
2018-04-09T15:27:17.698Z,91.02
2018-04-09T15:28:39.856Z,91.11
2018-04-09T15:30:01.683Z,91.11
2018-04-09T15:31:23.826Z,91.3
2018-04-09T15:32:45.965Z,91.4
2018-04-09T15:34:08.095Z,91.2
2018-04-09T15:35:30.274Z,91.6
2018-04-09T15:36:52.417Z,91.98
2018-04-09T15:38:14.532Z,91.88
2018-04-09T15:39:36.354Z,92.17
2018-04-09T15:40:57.949Z,92.27
2018-04-09T15:42:19.813Z,92.65
2018-04-09T15:43:41.656Z,92.46
2018-04-09T15:45:03.784Z,92.08
2018-04-09T15:46:25.930Z,92.27
2018-04-09T15:47:48.144Z,92.46
2018-04-09T15:49:10.286Z,92.17
2018-04-09T15:50:32.394Z,92.36
2018-04-09T15:51:54.504Z,92.8
2018-04-09T15:53:16.622Z,93.09
2018-04-09T15:54:38.749Z,93.19
2018-04-09T15:56:00.960Z,92.99
2018-04-09T15:57:23.064Z,92.71
2018-04-09T15:58:45.176Z,92.99
2018-04-09T16:00:07.293Z,92.71
2018-04-09T16:01:29.179Z,92.99
2018-04-09T16:02:51.047Z,92.41
2018-04-09T16:04:13.145Z,92.41
2018-04-09T16:05:35.278Z,92.71
2018-04-09T16:06:57.410Z,93.09
2018-04-09T16:08:19.247Z,93.38
2018-04-09T16:09:41.367Z,93.19
2018-04-09T16:11:03.485Z,93.48
2018-04-09T16:12:25.626Z,93.86
2018-04-09T16:13:47.757Z,94.06
2018-04-09T16:15:09.613Z,94.15
2018-04-09T16:16:31.736Z,94.34
2018-04-09T16:17:53.571Z,94.34
2018-04-09T16:19:15.718Z,94.39
2018-04-09T16:20:37.821Z,94.39
2018-04-09T16:21:59.941Z,94.39
2018-04-09T16:23:22.057Z,94.68
2018-04-09T16:24:44.257Z,94.97
2018-04-09T16:26:06.382Z,94.78
2018-04-09T16:27:28.204Z,94.59
2018-04-09T16:28:50.305Z,94.59
2018-04-09T16:30:12.417Z,94.39
2018-04-09T16:31:34.527Z,94.68
2018-04-09T16:32:56.367Z,94.78
2018-04-09T16:34:18.524Z,94.97
2018-04-09T16:35:40.345Z,95.26
2018-04-09T16:37:02.463Z,94.87
2018-04-09T16:38:24.588Z,95.16
2018-04-09T16:39:46.684Z,95.31
2018-04-09T16:41:08.788Z,95.89
2018-04-09T16:42:30.931Z,96.27
2018-04-09T16:43:53.068Z,96.17
2018-04-09T16:45:15.195Z,96.37
2018-04-09T16:46:37.037Z,96.46
2018-04-09T16:47:59.176Z,96.66
2018-04-09T16:49:21.308Z,96.94
2018-04-09T16:50:43.398Z,97.04
2018-04-09T16:52:05.275Z,97.14
2018-04-09T16:53:27.393Z,97.62
2018-04-09T16:54:49.491Z,97.42
2018-04-09T16:56:11.690Z,97.67
2018-04-09T16:57:33.838Z,97.96
2018-04-09T16:58:55.951Z,98.05
2018-04-09T17:00:18.087Z,98.24
2018-04-09T17:01:40.196Z,98.63
2018-04-09T17:03:02.328Z,98.54
2018-04-09T17:04:24.541Z,98.72
2018-04-09T17:05:46.668Z,98.92
2018-04-09T17:07:08.780Z,99.11
2018-04-09T17:08:30.625Z,99.3
2018-04-09T17:09:52.468Z,99.4
2018-04-09T17:11:14.358Z,99.69
2018-04-09T17:12:36.488Z,99.88
2018-04-09T17:13:58.336Z,99.99
2018-04-09T17:15:20.439Z,99.99
2018-04-09T17:16:42.546Z,99.99
2018-04-09T17:18:04.701Z,99.99
2018-04-09T17:19:26.817Z,99.99
2018-04-09T17:20:48.945Z,99.99
2018-04-09T17:22:10.792Z,99.99
2018-04-09T17:23:32.638Z,99.99
2018-04-09T17:24:54.756Z,99.99
2018-04-09T17:26:16.915Z,99.99
2018-04-09T17:27:38.785Z,99.99
2018-04-09T17:29:00.967Z,99.99
2018-04-09T17:30:23.139Z,99.99
2018-04-09T17:31:44.992Z,99.99
2018-04-09T17:33:07.173Z,99.99
2018-04-09T17:34:29.308Z,99.99
2018-04-09T17:35:51.462Z,99.99
2018-04-09T17:37:13.358Z,99.99
2018-04-09T17:38:35.467Z,99.99